Wednesday, April 23, 2014
18:45 UTC
  |  Log In   |  Register Free
Airport Search:

Gainesville Municipal Airport
(KGLE)

FAA data valid effective April 3, 2014 until May 29, 2014 (unless otherwise noted).

 
 
 
 
 
 
 
 
 
 
 
 
 
 

Current Aviation Weather for Gainesville Municipal Airport (KGLE)

The most recent METAR observation for KGLE was updated at: 1735 UTC
METAR Summary (Translated METAR)
KGLE
231735Z AUTO 16013G20KT 10SM CLR 25/17 A2990 RMK AO2 T02540165
KGYI
(26.4 nm NE from KGLE)
231735Z AUTO 17010KT 10SM SCT039 26/15 A2990 RMK AO2 T02590152
TAF
No TAF information found within 50 nm of KGLE
  Airport Weather Conditions for KGLE

 Current Weather at GLE
78° F
Fair
South winds at 15.0 mph
GLE NOAA Radar

Pressure: 29.90 in
Humidity: 58%
Wind: from the South at 15.0 gusting to 23.0 MPH (13 gusting to 20 KT)
Dew Point: 61.7°F
Visibility: 10.00 mi


Airport Weather Forecast for KGLE

Translated METAR and TAF for KGLE
Translated METAR for KGLE (1845 UTC 23 April 2014)
found at http://aviationweather.gov/adds/metars/
 
METAR text: KGLE 231835Z AUTO 14015KT 10SM CLR 27/16 A2987 RMK AO2 T02650164
Conditions at: KGLE (GAINESVILLE , TX, US) observed 1835 UTC 23 April 2014
Temperature: 26.5°C (80°F)
Dewpoint: 16.4°C (62°F) [RH = 54%]
Pressure (altimeter): 29.87 inches Hg (1011.6 mb)
Winds: from the SE (140 degrees) at 17 MPH (15 knots; 7.8 m/s)
Visibility: 10 or more miles (16+ km)
Ceiling: at least 12,000 feet AGL
Clouds: sky clear below 12,000 feet AGL
Weather: automated observation with no human augmentation;
there may or may not be significant weather present at this time
Translated TAF for KGLE

There is no translated TAF available for this airport

Find All Airport Services Find A Hotel Find A Rental Car Find A Golf Course Find A Restaurant $100 Hamburger



FBO's on the Field
FBO Company Facility Photos Services Transportation Aviation Fuel Prices: Prices include tax
Catering Weather Repair Courtesy Rental Type 100LL JetA JetA+ MOGAS 8087
 
City of Gainesville Municipal Airport

This FBO has not yet been rated
FS:Phillips66
Last Updated: Mar-25
Login to update fuel prices
SS:
Contact City of Gainesville Municipal AirportMore FBO Information
 
Add another FBO Facility Photos Catering Weather Repair Courtesy Rental Type 100LL JetA JetA+ MOGAS 8087
Services Transportation Aviation Fuel Prices: Prices include tax


GlobalAir.com Airport Resource Center model-print
model-print
model-print
model-print